Aktualne dane pomiarowe

Uwaga, wersja testowa! Automatyczne pobieranie danych za pomocą narzędzi lub skryptów to umożliwiających jest zabronione.

Dane meteo z obszaru Polski uzyskane na podstawie depesz SYNOP pobieranych co godzinę z NWS. Najedź myszką na symbol przedstawiony w tabeli, aby uzyskać informacje co do jego znaczenia. Prosimy pamiętać, że to testowa wersja strony, która jeszcze nie jest ukończona. Stworzono również jest krótki FAQ dotyczący korzystania z tej podstrony Anomalie temperatury w chwili obecnej odniesione są do okresu referencyjnego 1951-2016. Okres ten będzie później zmieniony na 1981-2010. Kliknij ikonę aby pobrać plik CSV. Kliknij ikonę aby wygenerować mapę synoptyczną dla danego terminu.

Wybierz Datę:    

        

Radom (12485)

Dane terminowe dla wybranej stacji. Kliknij datę, aby otrzymać dane z tego terminu dla wszystkich stacji.

TemperaturaZachmurzenieWiatrCiśnienieOpadyPogoda
 Data t td wb tx tn tg rh  Nt Nl Cl Cm Ch ws wd g1 g2 wx mslp ppp ch 24h 12h t ww ww w1 w2  
2019-07-12 23:00:00 15.7 10.7 12.5--- 7210.0wx-wxwx2wx---1009.1 987.4 -0.2---------
2019-07-12 22:00:00 17.6 10.7 13.3--- 6410.0wx-wxwx3wx---1009.2 987.6 0.1---------
2019-07-12 21:00:00 18.6 9.9 13.4--- 5710.0wx-wx1----1009.2 987.7 0.6---------
2019-07-12 20:00:00 18.1 9.7 13.1--- 5810.0wx-wx2wx---1009.1 987.6 0.4---------
2019-07-12 19:00:00 19.3 10.1 13.8--- 5510.0wx-wx1----1008.9 987.5 0.3---------
2019-07-12 18:00:00 20.7 10.2 14.4--- 5110.0wx-wx1----1008.4 987.1 -0.2---------
2019-07-12 17:00:00 23.6 7.4 14.5--- 3510.0wx-wx1----1008.2 987.1 -0.7---------
2019-07-12 16:00:00 24.0 6.8 14.4--- 3310.0wxwxwxwx1----1008.3 987.2 -0.9---------
2019-07-12 15:00:00 24.6 7.3 14.9--- 3310.0wxwxwxwx3wx---1008.3 987.3 -0.9---------
2019-07-12 14:00:00 24.1 7.3 14.7--- 3410.0wxwxwxwx1----1008.9 987.8 -0.7---------
2019-07-12 13:00:00 23.5 7.2 14.4--- 3510.0wxwxwxwx1----1009.2 988.1 -0.8---------
2019-07-12 12:00:00 23.7 5.6 13.8--- 3110.0wxwxwxwx1----1009.3 988.2 -0.9---------
2019-07-12 11:00:00 24.1 6.9 14.5--- 3310.0wxwxwx2wx---1009.6 988.5 -0.8---------
2019-07-12 10:00:00 22.7 6.5 13.7--- 3510.0wxwxwx3wx---1010.1 988.9 -0.6---------
2019-07-12 09:00:00 22.3 8.1 14.2--- 4010.0wxwxwx1----1010.4 989.1 -0.6---------
2019-07-12 08:00:00 21.2 8.2 13.8--- 4310.0wxwxwxwx3wx---1010.6 989.3 -0.3---------
2019-07-12 07:00:00 19.7 8.6 13.3--- 4910.0wx-wx3wx---1011.0 989.5 -0.2---------
2019-07-12 06:00:00 17.7 8.6 12.4--- 5510.0wx-wx3wx---1011.3 989.7 0.2---------
2019-07-12 05:00:00 15.2 8.5 11.2--- 6410.0wx-wx3wx---1011.4 989.6 -0.1---------
2019-07-12 04:00:00 13.0 8.1 10.0--- 7210.0wxwxwx1wx---1011.7 989.7 -0.2---------
2019-07-12 03:00:00 10.1 7.4 8.4--- 8310.0wxwxwx2wx---1011.7 989.5 -0.3---------
2019-07-12 02:00:00 12.4 7.7 9.5--- 7310.0wx-wx2wx---1011.6 989.6 -0.4---------
2019-07-12 01:00:00 10.4 7.3 8.4--- 8110.0wx-wx3wx---1011.7 989.5 0.6---------
2019-07-12 00:00:00 10.1 7.4 8.4--- 8310.0wx-wx3wx---1012.0 989.8 0.1---------
2019-07-11 23:00:00 10.6 7.8 8.8--- 8310.0wx-wx3wx---1012.2 990.0 0.2---------
2019-07-11 22:00:00 10.5 7.7 8.7--- 8310.0wx-wx3wx---1012.3 990.1 0.5---------
2019-07-11 21:00:00 11.6 8.1 9.4--- 7910.0wx-wx2wx---1012.0 989.9 0.5---------
2019-07-11 20:00:00 14.5 8.2 10.7--- 6610.0wx-wx2wx---1011.7 989.8 -0.4---------
2019-07-11 19:00:00 17.2 7.8 11.8--- 5410.0wx-wx2wx---1011.2 989.6 -0.2---------
2019-07-11 18:00:00 18.5 7.3 12.2--- 4810.0wx-wx2wx---1010.9 989.4 -0.2---------
2019-07-11 17:00:00 19.2 7.3 12.5--- 4610.0wx-wx3wx---1010.9 989.4 -0.3---------
2019-07-11 16:00:00 19.0 8.7 13.0--- 5110.0wxwxwxwx4wx---1010.9 989.4 0.1---------
2019-07-11 15:00:00 18.4 8.7 12.7--- 5310.0wxwxwxwx5wx---1011.2 989.6 0.1---------
2019-07-11 14:00:00 17.4 9.8 12.8--- 6110.0wxwxwx3wx---1011.3 989.7 0.4---------
2019-07-11 13:00:00 17.7 9.6 12.8--- 5910.0wxwxwx4wx---1011.1 989.5 0.1---------
2019-07-11 12:00:00 17.1 9.5 12.5--- 6110.0wxwxwx4wx---1011.2 989.5 -0.2---------
2019-07-11 11:00:00 17.4 7.5 11.7--- 5210.0wxwxwx4wx---1010.9 989.3 -0.2---------
2019-07-11 10:00:00 16.2 8.9 11.8--- 6210.0wxwxwx4wx---1011.1 989.4 0.1---------
2019-07-11 09:00:00 16.1 10.2 12.4--- 6810.0wxwxwx4wx---1011.4 989.7 0.4---------
2019-07-11 08:00:00 14.8 9.2 11.3--- 6910.0wxwxwx4wx---1011.3 989.5 0.5---------
2019-07-11 07:00:00 14.2 11.2 12.2--- 8210.0wxwxwx2wx---1011.2 989.3 0.3---------
2019-07-11 06:00:00 12.6 10.8 11.4--- 8910.0wxwxwx4wx---1011.3 989.3 0.2---------
2019-07-11 05:00:00 12.0 10.7 11.1--- 9210.0wxwxwx2wx---1011.0 989.0 0.0---------
2019-07-11 04:00:00 11.6 10.5 10.8--- 9310.0wxwxwx2wx---1011.1 989.0 -0.2---wx-w1--
2019-07-11 03:00:00 12.1 10.3 10.9--- 8910.0wxwxwx2wx---1011.1 989.1 -0.2---------
2.9 ms

 

Print Friendly, PDF & Email